Time;durP1;ratioP1;P1;durP2;ratioP2;P2;SDS_P1;SDS_P2;PMS_P1;PMS_P2;Temp;Humidity;BMP_temperature;BMP_pressure;BME280_temperature;BME280_humidity;BME280_pressure;Samples;Min_cycle;Max_cycle;Signal;HPM_P1;HPM_P2
2022/05/07 00:01:54;;;;;;;28.83;21.02;;;;;;;;;;4935536;29;20051;-89
2022/05/07 00:04:20;;;;;;;27.33;21.35;;;;;;;;;;4935334;29;20503;-91
2022/05/07 00:06:46;;;;;;;32.58;20.73;;;;;;;;;;4951277;28;20047;-89
2022/05/07 00:09:12;;;;;;;27.05;20.83;;;;;;;;;;4934878;29;20043;-90
2022/05/07 00:11:38;;;;;;;29.88;20.27;;;;;;;;;;4935031;29;20047;-91
2022/05/07 00:14:04;;;;;;;31.17;22.08;;;;;;;;;;4935076;29;20138;-88
2022/05/07 00:19:15;;;;;;;35.53;21.40;;;;;;;;;;4935579;29;20094;-92
2022/05/07 00:21:45;;;;;;;30.73;21.60;;;;;;;;;;4936225;29;20062;-94
2022/05/07 00:24:11;;;;;;;29.15;22.80;;;;;;;;;;4951066;29;20050;-89
2022/05/07 00:26:37;;;;;;;33.58;22.42;;;;;;;;;;4935093;29;20048;-90
2022/05/07 00:29:03;;;;;;;29.77;22.23;;;;;;;;;;4934807;29;20481;-89
2022/05/07 00:31:29;;;;;;;32.65;23.83;;;;;;;;;;4934684;29;20079;-89
2022/05/07 00:33:55;;;;;;;35.85;25.45;;;;;;;;;;4950581;29;20448;-90
2022/05/07 00:36:21;;;;;;;32.72;25.00;;;;;;;;;;4934704;29;20058;-89
2022/05/07 00:38:47;;;;;;;32.58;25.30;;;;;;;;;;4950721;29;20126;-90
2022/05/07 00:41:14;;;;;;;32.97;24.55;;;;;;;;;;4934726;29;20139;-92
2022/05/07 00:43:41;;;;;;;32.30;23.95;;;;;;;;;;4934803;29;20074;-91
2022/05/07 00:46:12;;;;;;;35.90;25.17;;;;;;;;;;4935017;29;20039;-90
2022/05/07 00:48:38;;;;;;;35.53;24.70;;;;;;;;;;4950315;29;20106;-89
2022/05/07 00:53:50;;;;;;;33.47;25.23;;;;;;;;;;4915934;29;20500;-89
2022/05/07 00:56:16;;;;;;;33.95;24.30;;;;;;;;;;4915577;29;20389;-90
2022/05/07 00:58:42;;;;;;;32.70;24.10;;;;;;;;;;4916509;29;20044;-90
2022/05/07 01:01:08;;;;;;;33.65;23.75;;;;;;;;;;4919611;29;20107;-90
2022/05/07 01:03:36;;;;;;;33.22;24.65;;;;;;;;;;4919466;29;20048;-90
2022/05/07 01:06:03;;;;;;;34.53;24.40;;;;;;;;;;4919358;29;20052;-88
2022/05/07 01:08:33;;;;;;;31.60;24.17;;;;;;;;;;4934045;29;20399;-90
2022/05/07 01:11:00;;;;;;;35.33;25.15;;;;;;;;;;4919305;29;20139;-90
2022/05/07 01:13:26;;;;;;;35.05;24.27;;;;;;;;;;4919325;29;20050;-91
2022/05/07 01:15:56;;;;;;;33.92;24.85;;;;;;;;;;4919346;29;20040;-89
2022/05/07 01:18:22;;;;;;;31.95;23.23;;;;;;;;;;4919540;29;20055;-89
2022/05/07 01:20:49;;;;;;;35.88;26.20;;;;;;;;;;4919098;29;20064;-90
2022/05/07 01:23:15;;;;;;;33.85;24.92;;;;;;;;;;4919469;29;20446;-88
2022/05/07 01:25:41;;;;;;;34.33;26.45;;;;;;;;;;4918832;29;20048;-89
2022/05/07 01:28:10;;;;;;;36.50;26.90;;;;;;;;;;4919234;29;20048;-91
2022/05/07 01:30:39;;;;;;;36.47;27.33;;;;;;;;;;4918776;29;20102;-89
2022/05/07 01:33:05;;;;;;;38.80;25.50;;;;;;;;;;4918926;29;20083;-90
2022/05/07 01:35:31;;;;;;;34.67;25.70;;;;;;;;;;4918608;29;20055;-90
2022/05/07 01:37:57;;;;;;;35.03;26.05;;;;;;;;;;4919575;29;20052;-91
2022/05/07 01:40:28;;;;;;;33.05;25.48;;;;;;;;;;4918858;29;20048;-91
2022/05/07 01:42:54;;;;;;;37.35;27.50;;;;;;;;;;4918718;29;20416;-89
2022/05/07 01:45:20;;;;;;;37.47;27.13;;;;;;;;;;4918789;29;20059;-88
2022/05/07 01:50:30;;;;;;;32.17;23.70;;;;;;;;;;4918731;29;20131;-89
2022/05/07 01:52:56;;;;;;;33.83;25.25;;;;;;;;;;4931324;29;20103;-91
2022/05/07 01:55:22;;;;;;;31.52;25.23;;;;;;;;;;4937869;29;20500;-90
2022/05/07 01:57:48;;;;;;;34.30;25.08;;;;;;;;;;4938261;29;20047;-90
2022/05/07 02:00:14;;;;;;;30.40;24.15;;;;;;;;;;4937522;29;20058;-89
2022/05/07 02:02:40;;;;;;;32.15;25.10;;;;;;;;;;4937723;29;20075;-90
2022/05/07 02:05:07;;;;;;;32.47;24.88;;;;;;;;;;4937497;29;20126;-90
2022/05/07 02:07:35;;;;;;;33.00;25.65;;;;;;;;;;4953431;29;20039;-89
2022/05/07 02:10:01;;;;;;;31.80;24.52;;;;;;;;;;4936875;29;20043;-89
2022/05/07 02:12:27;;;;;;;32.03;25.45;;;;;;;;;;4953673;29;20047;-89
2022/05/07 02:14:54;;;;;;;33.10;26.35;;;;;;;;;;4953414;29;20048;-90
2022/05/07 02:17:20;;;;;;;32.90;26.17;;;;;;;;;;4953502;29;20483;-88
2022/05/07 02:19:46;;;;;;;35.80;26.85;;;;;;;;;;4953346;29;20043;-89
2022/05/07 02:22:13;;;;;;;33.53;25.73;;;;;;;;;;4937443;29;20046;-89
2022/05/07 02:24:39;;;;;;;33.03;24.40;;;;;;;;;;4937518;29;20055;-89
2022/05/07 02:27:05;;;;;;;34.75;27.25;;;;;;;;;;4953118;29;20039;-88
2022/05/07 02:29:31;;;;;;;34.15;26.25;;;;;;;;;;4937332;29;20099;-89
2022/05/07 02:32:06;;;;;;;32.42;25.60;;;;;;;;;;4937413;29;20047;-89
2022/05/07 02:34:36;;;;;;;36.70;27.38;;;;;;;;;;4937780;29;20044;-89
2022/05/07 02:37:03;;;;;;;32.83;25.38;;;;;;;;;;4953326;29;20047;-90
2022/05/07 02:39:29;;;;;;;34.50;27.45;;;;;;;;;;4953420;29;20075;-89
2022/05/07 02:44:39;;;;;;;34.50;26.30;;;;;;;;;;4937531;29;20055;-91
2022/05/07 02:47:05;;;;;;;33.42;25.95;;;;;;;;;;4973821;28;20062;-91
2022/05/07 02:49:33;;;;;;;36.58;27.10;;;;;;;;;;4961410;29;20035;-92
2022/05/07 02:51:59;;;;;;;36.10;26.98;;;;;;;;;;4961392;29;20055;-92
2022/05/07 02:54:25;;;;;;;37.15;26.38;;;;;;;;;;4961328;29;20031;-90
2022/05/07 02:56:52;;;;;;;34.72;26.33;;;;;;;;;;4961335;29;20036;-90
2022/05/07 02:59:19;;;;;;;35.63;27.13;;;;;;;;;;4961362;29;20035;-92
2022/05/07 03:01:45;;;;;;;35.58;26.80;;;;;;;;;;4961260;29;20048;-92
2022/05/07 03:04:11;;;;;;;36.15;26.88;;;;;;;;;;4961303;29;20047;-91
2022/05/07 03:06:38;;;;;;;36.88;27.48;;;;;;;;;;4961161;29;20051;-91
2022/05/07 03:09:04;;;;;;;36.40;27.80;;;;;;;;;;4961186;29;20060;-90
2022/05/07 03:11:33;;;;;;;33.67;25.67;;;;;;;;;;4977145;28;20027;-92
2022/05/07 03:13:59;;;;;;;36.30;26.40;;;;;;;;;;4961159;29;20055;-92
2022/05/07 03:16:27;;;;;;;35.70;27.50;;;;;;;;;;4960805;29;20024;-91
2022/05/07 03:18:53;;;;;;;36.85;26.45;;;;;;;;;;4960817;29;20036;-91
2022/05/07 03:21:19;;;;;;;34.45;26.65;;;;;;;;;;4959300;29;20043;-91
2022/05/07 03:23:46;;;;;;;36.83;26.25;;;;;;;;;;4973882;29;20044;-92
2022/05/07 03:26:12;;;;;;;33.83;26.25;;;;;;;;;;4958046;29;20043;-91
2022/05/07 03:28:39;;;;;;;31.08;25.02;;;;;;;;;;4958141;29;20043;-92
2022/05/07 03:31:05;;;;;;;35.28;24.90;;;;;;;;;;4956117;29;20103;-90
2022/05/07 03:33:31;;;;;;;33.83;25.90;;;;;;;;;;4970950;29;20047;-90
2022/05/07 03:35:57;;;;;;;33.45;24.83;;;;;;;;;;4955559;29;20075;-89
2022/05/07 03:38:23;;;;;;;29.05;23.20;;;;;;;;;;4957501;29;20047;-90
2022/05/07 03:40:50;;;;;;;27.98;23.70;;;;;;;;;;4967584;29;20051;-90
2022/05/07 03:43:16;;;;;;;29.23;23.15;;;;;;;;;;4974119;29;20059;-91
2022/05/07 03:45:42;;;;;;;31.02;23.33;;;;;;;;;;4969206;28;20044;-90
2022/05/07 03:48:09;;;;;;;27.92;23.98;;;;;;;;;;4935882;29;20039;-90
2022/05/07 03:50:36;;;;;;;31.23;24.30;;;;;;;;;;4951545;29;20048;-89
2022/05/07 03:55:48;;;;;;;28.85;23.98;;;;;;;;;;4935544;29;20051;-89
2022/05/07 03:58:17;;;;;;;32.42;24.70;;;;;;;;;;4935991;29;20411;-90
2022/05/07 04:00:43;;;;;;;30.90;23.15;;;;;;;;;;4935312;29;20103;-89
2022/05/07 04:03:13;;;;;;;29.50;22.70;;;;;;;;;;4935395;29;20075;-89
2022/05/07 04:05:39;;;;;;;28.77;23.20;;;;;;;;;;4932441;29;20106;-90
2022/05/07 04:08:06;;;;;;;30.80;24.02;;;;;;;;;;4951466;29;20043;-90
2022/05/07 04:10:32;;;;;;;29.20;23.45;;;;;;;;;;4935692;29;20220;-89
2022/05/07 04:12:58;;;;;;;27.80;22.70;;;;;;;;;;4935470;29;20051;-88
2022/05/07 04:15:24;;;;;;;29.42;23.92;;;;;;;;;;4951129;28;20083;-89
2022/05/07 04:17:50;;;;;;;30.60;23.73;;;;;;;;;;4951239;29;20415;-88
2022/05/07 04:20:17;;;;;;;32.83;24.17;;;;;;;;;;4935008;29;20047;-90
2022/05/07 04:22:43;;;;;;;30.58;22.48;;;;;;;;;;4935021;29;20046;-90
2022/05/07 04:25:10;;;;;;;30.85;23.02;;;;;;;;;;4935493;29;20048;-91
2022/05/07 04:27:36;;;;;;;31.40;24.35;;;;;;;;;;4935310;29;20042;-90
2022/05/07 04:30:02;;;;;;;31.38;24.23;;;;;;;;;;4951467;29;20051;-90
2022/05/07 04:32:29;;;;;;;33.83;25.30;;;;;;;;;;4934686;29;20040;-89
2022/05/07 04:34:55;;;;;;;31.73;24.48;;;;;;;;;;4950550;28;20435;-88
2022/05/07 04:37:21;;;;;;;30.70;24.63;;;;;;;;;;4934767;29;20135;-90
2022/05/07 04:39:47;;;;;;;30.58;25.38;;;;;;;;;;4935333;29;20127;-89
2022/05/07 04:42:13;;;;;;;28.90;25.20;;;;;;;;;;4934588;29;20048;-90
2022/05/07 04:44:40;;;;;;;32.33;25.00;;;;;;;;;;4934856;29;20147;-88
2022/05/07 04:47:07;;;;;;;31.25;25.67;;;;;;;;;;4934470;29;20146;-89
2022/05/07 04:49:33;;;;;;;34.10;26.33;;;;;;;;;;4935053;29;20048;-90
2022/05/07 04:51:59;;;;;;;36.45;26.48;;;;;;;;;;4953643;29;20082;-88
2022/05/07 04:54:25;;;;;;;31.55;25.60;;;;;;;;;;4938350;29;20054;-89
2022/05/07 04:56:52;;;;;;;34.28;26.67;;;;;;;;;;4937515;29;20043;-90
2022/05/07 04:59:19;;;;;;;32.83;28.02;;;;;;;;;;4953843;29;20045;-90
2022/05/07 05:01:45;;;;;;;34.00;27.33;;;;;;;;;;4953731;29;20047;-89
2022/05/07 05:04:13;;;;;;;32.60;26.83;;;;;;;;;;4954120;29;20043;-89
2022/05/07 05:06:39;;;;;;;34.78;26.15;;;;;;;;;;4937497;29;20039;-89
2022/05/07 05:09:06;;;;;;;32.80;26.30;;;;;;;;;;4937957;29;20078;-89
2022/05/07 05:11:32;;;;;;;28.83;23.52;;;;;;;;;;4937770;29;20043;-88
2022/05/07 05:13:59;;;;;;;34.95;25.55;;;;;;;;;;4953882;29;20046;-90
2022/05/07 05:16:25;;;;;;;31.35;23.85;;;;;;;;;;4953386;28;20133;-89
2022/05/07 05:18:51;;;;;;;29.23;24.13;;;;;;;;;;4937889;29;20082;-89
2022/05/07 05:21:17;;;;;;;32.17;26.35;;;;;;;;;;4953819;29;20126;-89
2022/05/07 05:23:46;;;;;;;32.28;25.90;;;;;;;;;;4953799;29;20047;-90
2022/05/07 05:26:13;;;;;;;33.65;25.73;;;;;;;;;;4937518;29;20047;-89
2022/05/07 05:28:42;;;;;;;28.27;24.38;;;;;;;;;;4953747;29;20138;-88
2022/05/07 05:31:09;;;;;;;29.35;23.52;;;;;;;;;;4938029;29;20558;-89
2022/05/07 05:33:35;;;;;;;25.85;22.92;;;;;;;;;;4953766;29;20055;-89
2022/05/07 05:36:01;;;;;;;28.08;24.13;;;;;;;;;;4937702;29;20126;-88
2022/05/07 05:38:28;;;;;;;27.90;23.95;;;;;;;;;;4937875;29;20039;-89
2022/05/07 05:40:54;;;;;;;30.80;23.50;;;;;;;;;;4953438;29;20406;-91
2022/05/07 05:43:20;;;;;;;29.73;26.48;;;;;;;;;;4953481;29;20054;-89
2022/05/07 05:45:46;;;;;;;31.23;25.08;;;;;;;;;;4938657;29;20050;-90
2022/05/07 05:48:13;;;;;;;30.23;24.70;;;;;;;;;;4940806;29;20090;-89
2022/05/07 05:50:39;;;;;;;28.73;22.75;;;;;;;;;;4941538;29;20035;-89
2022/05/07 05:53:07;;;;;;;31.05;24.95;;;;;;;;;;4956720;29;20066;-90
2022/05/07 05:55:34;;;;;;;28.65;23.67;;;;;;;;;;4940854;29;20050;-89
2022/05/07 05:58:00;;;;;;;28.88;24.23;;;;;;;;;;4956541;29;20053;-88
2022/05/07 06:00:26;;;;;;;35.75;26.10;;;;;;;;;;4941108;29;20043;-88
2022/05/07 06:02:52;;;;;;;28.40;24.23;;;;;;;;;;4940673;29;20039;-87
2022/05/07 06:05:19;;;;;;;29.55;23.60;;;;;;;;;;4956761;28;20039;-89
2022/05/07 06:07:45;;;;;;;30.77;23.67;;;;;;;;;;4940365;29;20487;-88
2022/05/07 06:10:11;;;;;;;31.65;24.20;;;;;;;;;;4956731;29;20041;-88
2022/05/07 06:12:40;;;;;;;26.80;23.75;;;;;;;;;;4956642;29;20051;-88
2022/05/07 06:15:07;;;;;;;30.20;22.38;;;;;;;;;;4940583;29;20134;-90
2022/05/07 06:17:33;;;;;;;28.73;23.60;;;;;;;;;;4940189;29;20054;-89
2022/05/07 06:19:59;;;;;;;29.45;24.20;;;;;;;;;;4940627;29;20052;-90
2022/05/07 06:22:27;;;;;;;25.90;23.02;;;;;;;;;;4940079;29;20043;-90
2022/05/07 06:27:38;;;;;;;26.90;24.00;;;;;;;;;;4940398;29;20122;-91
2022/05/07 06:30:05;;;;;;;28.80;24.17;;;;;;;;;;4940444;29;20078;-90
2022/05/07 06:32:40;;;;;;;28.50;23.00;;;;;;;;;;4940057;29;20043;-90
2022/05/07 06:35:06;;;;;;;27.15;23.10;;;;;;;;;;4940492;29;20051;-90
2022/05/07 06:37:34;;;;;;;26.45;22.55;;;;;;;;;;4939847;29;20179;-91
2022/05/07 06:40:01;;;;;;;27.25;23.17;;;;;;;;;;4956583;29;20537;-91
2022/05/07 06:42:27;;;;;;;26.05;21.95;;;;;;;;;;4939657;29;20047;-90
2022/05/07 06:44:55;;;;;;;27.27;21.10;;;;;;;;;;4957024;28;20079;-90
2022/05/07 06:47:27;;;;;;;25.40;20.85;;;;;;;;;;4958394;29;20134;-94
2022/05/07 06:49:53;;;;;;;29.80;21.58;;;;;;;;;;4940945;29;20050;-90
2022/05/07 06:52:19;;;;;;;27.95;22.70;;;;;;;;;;4951682;29;20055;-89
2022/05/07 06:54:45;;;;;;;27.95;22.40;;;;;;;;;;4924881;29;20083;-90
2022/05/07 06:57:11;;;;;;;24.17;21.35;;;;;;;;;;4909808;29;20042;-89
2022/05/07 06:59:37;;;;;;;26.70;20.75;;;;;;;;;;4934534;29;20070;-90
2022/05/07 07:02:04;;;;;;;25.02;21.20;;;;;;;;;;4920260;29;20063;-90
2022/05/07 07:04:33;;;;;;;23.60;21.02;;;;;;;;;;4917252;29;20558;-89
2022/05/07 07:06:59;;;;;;;25.42;20.98;;;;;;;;;;4909809;29;20040;-91
2022/05/07 07:09:25;;;;;;;24.45;21.13;;;;;;;;;;4904628;29;20043;-89
2022/05/07 07:11:51;;;;;;;27.88;21.88;;;;;;;;;;4935882;29;20040;-90
2022/05/07 07:14:17;;;;;;;25.88;21.52;;;;;;;;;;4912972;29;20092;-91
2022/05/07 07:16:43;;;;;;;26.25;21.88;;;;;;;;;;4912631;29;20043;-91
2022/05/07 07:19:09;;;;;;;24.50;20.42;;;;;;;;;;4912116;29;20087;-88
2022/05/07 07:21:35;;;;;;;26.25;20.65;;;;;;;;;;4907653;29;20047;-91
2022/05/07 07:24:06;;;;;;;24.67;20.63;;;;;;;;;;4914424;29;20051;-91
2022/05/07 07:26:35;;;;;;;28.52;21.38;;;;;;;;;;4930037;29;20511;-92
2022/05/07 07:29:05;;;;;;;23.38;19.65;;;;;;;;;;4927764;29;20498;-91
2022/05/07 07:31:31;;;;;;;26.30;20.00;;;;;;;;;;4935678;29;20126;-89
2022/05/07 07:33:57;;;;;;;25.02;19.98;;;;;;;;;;4928492;29;20055;-89
2022/05/07 07:36:23;;;;;;;23.65;20.48;;;;;;;;;;4917134;29;20047;-89
2022/05/07 07:38:49;;;;;;;27.42;20.85;;;;;;;;;;4919694;29;20075;-90
2022/05/07 07:41:16;;;;;;;26.13;19.67;;;;;;;;;;4920629;29;20048;-91
2022/05/07 07:43:42;;;;;;;24.75;19.60;;;;;;;;;;4919976;29;20039;-89
2022/05/07 07:48:53;;;;;;;25.35;20.40;;;;;;;;;;4935475;29;20044;-89
2022/05/07 07:51:20;;;;;;;24.10;20.55;;;;;;;;;;4920162;29;20098;-91
2022/05/07 07:53:47;;;;;;;24.15;19.08;;;;;;;;;;4919334;29;20097;-92
2022/05/07 07:56:14;;;;;;;22.13;18.33;;;;;;;;;;4920320;29;20052;-91
2022/05/07 07:58:40;;;;;;;21.05;18.30;;;;;;;;;;4919225;29;20046;-90
2022/05/07 08:01:10;;;;;;;24.42;18.55;;;;;;;;;;4936862;29;20109;-90
2022/05/07 08:03:36;;;;;;;22.70;19.35;;;;;;;;;;4919069;29;20095;-88
2022/05/07 08:06:03;;;;;;;21.52;17.90;;;;;;;;;;4919561;29;20111;-88
2022/05/07 08:14:02;;;;;;;26.52;20.23;;;;;;;;;;4935237;29;20047;-89
2022/05/07 08:16:28;;;;;;;24.05;19.48;;;;;;;;;;4919574;29;20148;-90
2022/05/07 08:18:55;;;;;;;27.95;20.08;;;;;;;;;;4919179;29;20051;-88
2022/05/07 08:21:21;;;;;;;26.95;20.40;;;;;;;;;;4919361;29;20054;-88
2022/05/07 08:23:47;;;;;;;28.02;20.80;;;;;;;;;;4918821;29;20101;-87
2022/05/07 08:26:14;;;;;;;24.80;21.05;;;;;;;;;;4934748;29;20044;-89
2022/05/07 08:28:40;;;;;;;23.75;21.17;;;;;;;;;;4934660;29;20036;-87
2022/05/07 08:31:11;;;;;;;25.17;21.33;;;;;;;;;;4918997;29;20043;-89
2022/05/07 08:33:41;;;;;;;22.98;20.52;;;;;;;;;;4918793;29;20051;-87
2022/05/07 08:36:09;;;;;;;24.63;20.92;;;;;;;;;;4919552;29;20059;-89
2022/05/07 08:38:35;;;;;;;22.45;20.02;;;;;;;;;;4919058;29;20080;-88
2022/05/07 08:41:01;;;;;;;25.27;20.58;;;;;;;;;;4934932;29;20521;-89
2022/05/07 08:43:32;;;;;;;26.40;20.83;;;;;;;;;;4934392;29;20525;-87
2022/05/07 08:45:58;;;;;;;25.52;20.30;;;;;;;;;;4934942;29;20039;-88
2022/05/07 08:48:24;;;;;;;23.60;19.55;;;;;;;;;;4934203;29;20110;-88
2022/05/07 08:50:56;;;;;;;28.50;20.42;;;;;;;;;;4934361;29;20211;-89
2022/05/07 08:53:22;;;;;;;24.58;18.95;;;;;;;;;;4918623;29;20094;-87
2022/05/07 08:55:52;;;;;;;27.38;20.42;;;;;;;;;;4934219;29;20043;-88
2022/05/07 08:58:18;;;;;;;22.95;18.98;;;;;;;;;;4934105;29;20083;-88
2022/05/07 09:00:45;;;;;;;25.38;18.70;;;;;;;;;;4934399;29;20039;-90
2022/05/07 09:03:17;;;;;;;21.70;18.48;;;;;;;;;;4919109;29;20131;-90
2022/05/07 09:05:43;;;;;;;21.60;17.50;;;;;;;;;;4934439;29;20047;-89
2022/05/07 09:08:12;;;;;;;25.42;17.27;;;;;;;;;;4934254;29;20107;-88
2022/05/07 09:10:39;;;;;;;30.85;18.00;;;;;;;;;;4934405;29;20487;-88
2022/05/07 09:13:17;;;;;;;21.73;18.05;;;;;;;;;;4934536;29;20054;-89
2022/05/07 09:15:51;;;;;;;23.10;17.90;;;;;;;;;;4934400;29;20047;-88
2022/05/07 09:18:18;;;;;;;25.05;19.63;;;;;;;;;;4933720;29;20055;-87
2022/05/07 09:20:44;;;;;;;24.60;17.70;;;;;;;;;;4920537;29;20051;-90
2022/05/07 09:23:13;;;;;;;25.98;18.73;;;;;;;;;;4937873;29;20044;-90
2022/05/07 09:25:46;;;;;;;21.60;17.38;;;;;;;;;;4939474;29;20039;-87
2022/05/07 09:28:12;;;;;;;26.65;19.85;;;;;;;;;;4922080;29;20479;-88
2022/05/07 09:30:41;;;;;;;26.45;18.85;;;;;;;;;;4937728;29;20106;-89
2022/05/07 09:33:07;;;;;;;23.20;18.63;;;;;;;;;;4922386;29;20055;-88
2022/05/07 09:35:49;;;;;;;22.98;18.05;;;;;;;;;;4937498;29;20043;-87
2022/05/07 09:38:15;;;;;;;22.95;17.00;;;;;;;;;;4922274;29;20060;-91
2022/05/07 09:40:42;;;;;;;24.95;19.73;;;;;;;;;;4937607;29;20054;-90
2022/05/07 09:43:09;;;;;;;27.92;20.77;;;;;;;;;;4937786;29;20099;-89
2022/05/07 09:45:36;;;;;;;24.98;18.95;;;;;;;;;;4921407;29;20482;-90
2022/05/07 09:48:03;;;;;;;24.40;18.65;;;;;;;;;;4921907;29;20193;-90
2022/05/07 09:58:32;;;;;;;26.15;20.15;;;;;;;;;;4937420;29;20055;-88
2022/05/07 10:00:58;;;;;;;29.48;21.20;;;;;;;;;;4937312;29;20043;-89
2022/05/07 10:03:39;;;;;;;28.52;21.02;;;;;;;;;;4922422;29;20048;-88
2022/05/07 10:06:24;;;;;;;27.52;21.05;;;;;;;;;;4921747;29;20126;-92
2022/05/07 10:08:58;;;;;;;26.20;19.83;;;;;;;;;;4921249;29;20043;-89
2022/05/07 10:11:24;;;;;;;25.75;19.55;;;;;;;;;;4937296;29;20075;-89
2022/05/07 10:13:54;;;;;;;24.98;18.90;;;;;;;;;;4932107;29;20044;-87
2022/05/07 10:16:21;;;;;;;25.98;20.92;;;;;;;;;;4921319;29;20543;-87
2022/05/07 10:18:47;;;;;;;27.17;21.48;;;;;;;;;;4921305;29;20098;-88
2022/05/07 10:21:14;;;;;;;28.75;21.50;;;;;;;;;;4921610;29;20047;-90
2022/05/07 10:23:56;;;;;;;33.85;26.75;;;;;;;;;;4921507;29;20043;-90
2022/05/07 10:26:24;;;;;;;38.85;31.38;;;;;;;;;;4921164;29;20039;-91
2022/05/07 10:28:51;;;;;;;32.03;25.50;;;;;;;;;;4921500;29;20436;-90
2022/05/07 10:31:18;;;;;;;32.00;25.48;;;;;;;;;;4920628;29;20184;-90
2022/05/07 10:33:44;;;;;;;34.13;25.13;;;;;;;;;;4921522;29;20049;-89
2022/05/07 10:36:11;;;;;;;37.65;28.15;;;;;;;;;;4920958;29;20040;-90
2022/05/07 10:38:38;;;;;;;39.35;27.73;;;;;;;;;;4920800;29;20039;-88
2022/05/07 10:41:18;;;;;;;38.78;28.00;;;;;;;;;;4920875;29;20052;-89
2022/05/07 10:43:56;;;;;;;34.80;27.73;;;;;;;;;;4920771;29;20048;-90
2022/05/07 10:46:23;;;;;;;36.72;28.75;;;;;;;;;;4921017;29;20147;-91
2022/05/07 10:48:50;;;;;;;35.25;27.75;;;;;;;;;;4920812;29;20152;-92
2022/05/07 10:51:34;;;;;;;38.40;29.63;;;;;;;;;;4935471;29;20050;-90
2022/05/07 10:54:02;;;;;;;38.70;27.98;;;;;;;;;;4920630;29;20055;-90
2022/05/07 10:56:31;;;;;;;39.92;28.40;;;;;;;;;;4920551;29;20055;-89
2022/05/07 10:58:57;;;;;;;36.90;27.48;;;;;;;;;;4920626;29;20436;-90
2022/05/07 11:01:24;;;;;;;39.03;27.45;;;;;;;;;;4920658;29;20047;-90
2022/05/07 11:04:03;;;;;;;35.40;26.90;;;;;;;;;;4920933;29;20464;-91
2022/05/07 11:06:29;;;;;;;36.10;25.92;;;;;;;;;;4920660;29;20063;-91
2022/05/07 11:08:55;;;;;;;34.63;25.92;;;;;;;;;;4916343;29;20396;-91
2022/05/07 11:11:24;;;;;;;33.42;25.48;;;;;;;;;;4901484;29;20048;-91
2022/05/07 11:13:51;;;;;;;33.42;24.30;;;;;;;;;;4886244;29;20052;-89
2022/05/07 11:16:18;;;;;;;32.75;24.15;;;;;;;;;;4885703;29;20075;-88
2022/05/07 11:18:50;;;;;;;29.77;22.65;;;;;;;;;;4932888;29;20048;-88
2022/05/07 11:21:17;;;;;;;29.52;21.50;;;;;;;;;;4933149;29;20083;-89
2022/05/07 11:23:44;;;;;;;29.10;20.65;;;;;;;;;;4932759;29;20063;-89
2022/05/07 11:26:15;;;;;;;27.10;20.95;;;;;;;;;;4885070;29;20044;-88
2022/05/07 11:28:43;;;;;;;30.25;20.88;;;;;;;;;;4885300;29;20044;-87
2022/05/07 11:31:10;;;;;;;27.55;20.85;;;;;;;;;;4932623;29;20518;-89
2022/05/07 11:33:37;;;;;;;27.52;21.25;;;;;;;;;;4933011;29;20054;-88
2022/05/07 11:36:07;;;;;;;30.65;22.13;;;;;;;;;;4932687;29;20484;-88
2022/05/07 11:38:34;;;;;;;30.13;22.00;;;;;;;;;;4932669;29;20484;-88
2022/05/07 11:41:14;;;;;;;30.08;23.08;;;;;;;;;;4885473;29;20044;-88
2022/05/07 11:46:27;;;;;;;33.22;25.13;;;;;;;;;;4900647;29;20040;-89
2022/05/07 11:49:05;;;;;;;33.45;25.00;;;;;;;;;;4885643;29;20047;-88
2022/05/07 11:51:34;;;;;;;35.55;25.08;;;;;;;;;;4932744;29;20127;-89
2022/05/07 11:54:08;;;;;;;32.17;24.00;;;;;;;;;;4932371;29;20578;-89
2022/05/07 11:56:45;;;;;;;29.60;23.65;;;;;;;;;;4932149;29;20048;-90
2022/05/07 11:59:11;;;;;;;34.55;24.77;;;;;;;;;;4885327;29;20044;-89
2022/05/07 12:01:37;;;;;;;39.55;26.42;;;;;;;;;;4885148;29;20044;-92
2022/05/07 12:04:10;;;;;;;40.38;27.48;;;;;;;;;;4932821;29;20066;-90
2022/05/07 12:06:36;;;;;;;37.15;26.73;;;;;;;;;;4932359;29;20123;-88
2022/05/07 12:09:14;;;;;;;34.83;25.27;;;;;;;;;;4885176;29;20036;-92
2022/05/07 12:11:42;;;;;;;35.63;26.10;;;;;;;;;;4885162;29;20043;-90
2022/05/07 12:14:10;;;;;;;33.80;25.38;;;;;;;;;;4932401;29;20054;-91
2022/05/07 12:19:27;;;;;;;29.35;22.05;;;;;;;;;;4900809;29;20102;-93
2022/05/07 12:30:13;;;;;;;25.33;16.43;;;;;;;;;;4900429;29;20048;-91
2022/05/07 12:32:44;;;;;;;22.70;16.30;;;;;;;;;;4932063;29;20044;-93
2022/05/07 12:35:11;;;;;;;23.17;15.63;;;;;;;;;;4885017;29;20051;-89
2022/05/07 12:37:39;;;;;;;20.40;14.48;;;;;;;;;;4894053;29;20047;-92
2022/05/07 12:40:07;;;;;;;22.20;15.45;;;;;;;;;;4903530;29;20051;-89
2022/05/07 12:42:36;;;;;;;20.33;14.70;;;;;;;;;;4899711;29;20040;-91
2022/05/07 12:45:02;;;;;;;19.70;13.45;;;;;;;;;;4903803;29;20040;-91
2022/05/07 12:47:28;;;;;;;17.42;12.00;;;;;;;;;;4903602;29;20051;-92
2022/05/07 12:49:54;;;;;;;17.30;10.73;;;;;;;;;;4919357;29;20403;-89
2022/05/07 12:52:24;;;;;;;16.67;11.02;;;;;;;;;;4903014;29;20106;-89
2022/05/07 12:54:52;;;;;;;17.98;10.48;;;;;;;;;;4918904;29;20042;-93
2022/05/07 12:57:18;;;;;;;18.25;10.57;;;;;;;;;;4911888;29;20071;-90
2022/05/07 12:59:47;;;;;;;17.55;10.80;;;;;;;;;;4938687;29;20103;-89
2022/05/07 13:02:13;;;;;;;15.90;10.68;;;;;;;;;;4919446;29;20078;-90
2022/05/07 13:04:39;;;;;;;14.77;10.60;;;;;;;;;;4918090;29;20054;-94
2022/05/07 13:07:05;;;;;;;17.95;10.57;;;;;;;;;;4921630;29;20039;-91
2022/05/07 13:09:31;;;;;;;15.25;10.93;;;;;;;;;;4919731;29;20118;-91
2022/05/07 13:11:57;;;;;;;18.52;11.02;;;;;;;;;;4912751;29;20033;-91
2022/05/07 13:14:24;;;;;;;16.92;11.15;;;;;;;;;;4916381;29;20044;-92
2022/05/07 13:16:53;;;;;;;16.63;11.18;;;;;;;;;;4917820;29;20055;-89
2022/05/07 13:19:20;;;;;;;15.23;11.35;;;;;;;;;;4916229;29;20048;-90
2022/05/07 13:21:46;;;;;;;19.50;11.27;;;;;;;;;;4900339;29;20425;-91
2022/05/07 13:24:15;;;;;;;21.05;12.05;;;;;;;;;;4916289;29;20055;-91
2022/05/07 13:26:41;;;;;;;18.00;11.43;;;;;;;;;;4916090;29;20195;-89
2022/05/07 13:29:12;;;;;;;16.40;11.02;;;;;;;;;;4900472;29;20120;-90
2022/05/07 13:31:41;;;;;;;16.73;10.18;;;;;;;;;;4899911;29;20040;-91
2022/05/07 13:34:10;;;;;;;18.13;11.18;;;;;;;;;;4915917;29;20071;-89
2022/05/07 13:36:36;;;;;;;22.67;11.45;;;;;;;;;;4899924;29;20055;-91
2022/05/07 13:39:02;;;;;;;16.27;12.18;;;;;;;;;;4915951;29;20040;-91
2022/05/07 13:41:29;;;;;;;18.95;12.65;;;;;;;;;;4915902;29;20055;-92
2022/05/07 13:43:57;;;;;;;17.15;12.32;;;;;;;;;;4900483;29;20044;-89
2022/05/07 13:46:29;;;;;;;20.73;12.93;;;;;;;;;;4916360;29;20044;-89
2022/05/07 13:48:55;;;;;;;18.75;13.52;;;;;;;;;;4926669;29;20083;-90
2022/05/07 13:51:21;;;;;;;17.45;11.75;;;;;;;;;;4938326;29;20040;-90
2022/05/07 13:53:47;;;;;;;15.55;10.60;;;;;;;;;;4939523;29;20044;-89
2022/05/07 13:56:13;;;;;;;15.32;10.43;;;;;;;;;;4923944;29;20052;-90
2022/05/07 13:58:41;;;;;;;17.17;9.90;;;;;;;;;;4924211;29;20036;-90
2022/05/07 14:01:11;;;;;;;14.20;6.82;;;;;;;;;;4923449;29;20051;-90
2022/05/07 14:03:37;;;;;;;16.08;8.32;;;;;;;;;;4923543;29;20096;-88
2022/05/07 14:06:04;;;;;;;15.60;8.10;;;;;;;;;;4923202;29;20055;-87
2022/05/07 14:08:30;;;;;;;14.10;7.05;;;;;;;;;;4950883;28;20031;-89
2022/05/07 14:10:56;;;;;;;11.63;6.13;;;;;;;;;;4962039;29;20031;-87
2022/05/07 14:13:22;;;;;;;9.10;4.72;;;;;;;;;;4957765;29;20031;-83
2022/05/07 14:15:48;;;;;;;7.93;4.63;;;;;;;;;;4959695;29;20099;-90
2022/05/07 14:18:17;;;;;;;9.38;3.40;;;;;;;;;;4971598;29;20047;-86
2022/05/07 14:20:43;;;;;;;5.20;2.83;;;;;;;;;;4956709;29;20122;-87
2022/05/07 14:23:12;;;;;;;6.88;3.13;;;;;;;;;;4958636;29;20049;-90
2022/05/07 14:25:45;;;;;;;5.95;2.70;;;;;;;;;;4951646;29;20488;-88
2022/05/07 14:28:11;;;;;;;6.60;2.42;;;;;;;;;;4946386;29;20039;-90
2022/05/07 14:30:37;;;;;;;4.13;1.70;;;;;;;;;;4943248;29;20094;-90
2022/05/07 14:33:07;;;;;;;5.50;2.05;;;;;;;;;;4943559;29;20097;-88
2022/05/07 14:35:39;;;;;;;6.53;2.00;;;;;;;;;;4967868;28;20064;-86
2022/05/07 14:38:08;;;;;;;5.43;2.30;;;;;;;;;;4940168;29;20058;-83
2022/05/07 14:40:34;;;;;;;6.18;2.22;;;;;;;;;;4955293;29;20031;-86
2022/05/07 14:43:04;;;;;;;7.57;3.10;;;;;;;;;;4957955;29;20039;-90
2022/05/07 14:45:31;;;;;;;6.45;3.90;;;;;;;;;;4945380;29;20047;-92
2022/05/07 14:47:57;;;;;;;8.38;4.30;;;;;;;;;;4944904;29;20043;-87
2022/05/07 14:50:25;;;;;;;9.85;5.82;;;;;;;;;;4946471;29;20093;-91
2022/05/07 14:52:51;;;;;;;10.63;6.32;;;;;;;;;;4960782;29;20564;-89
2022/05/07 14:55:18;;;;;;;13.90;7.10;;;;;;;;;;4941107;29;20055;-88
2022/05/07 14:57:44;;;;;;;11.90;6.93;;;;;;;;;;4939854;29;20072;-91
2022/05/07 15:00:13;;;;;;;11.85;7.28;;;;;;;;;;4939970;29;20125;-89
2022/05/07 15:02:46;;;;;;;11.13;6.10;;;;;;;;;;4939977;29;20550;-87
2022/05/07 15:05:14;;;;;;;12.07;6.07;;;;;;;;;;4939095;29;20047;-87
2022/05/07 15:07:40;;;;;;;12.93;6.35;;;;;;;;;;4939323;29;20051;-86